الصفحة الرئيسية
METAR-TAF:

METAR-TAF

مطار :

Touho, نيو كاليدونيا

دائرة عرض: 20-47-25S, خط طول: 165-15-34E, ارتفاع: 3 متر

METAR: مفقودة

زمن: 13:48 (02:48 UTC)

توقعات

تاريخ ووقت الإصدار 8ساعات و 3 دقيقة قبل الساعة 18:45UTC
التوقعات صالحة من26 الساعة 18 UTC إلى 27 الساعة 18 UTC
ريح 4 عقدة من الجنوب
الرؤية 10 كم أو أكثر
غيوم متفرقة على ارتفاع 6000 قدم
أصبح
من 26 الساعة 22 UTC إلى 26 الساعة 24 UTC
ريح 10 عقدة من الشرق
مؤقت
من 27 الساعة 05 UTC إلى 27 الساعة 09 UTC
ريح 15 عقدة من الجنوب تتزايد حتى 25 عقدة
غيوم قليلة على ارتفاع 2500 قدم, مزن ركامية عمودية.
زخات من المطر

TAF: NWWU 261845Z 2618/2718 19004KT 9999 SCT060 BECMG 2622/2624 09010KT TEMPO 2705/2709 19015G25KT SHRA FEW025TCU

أرصاد الطقس والتوقعات من أكثر من 4000 مطار (تقارير الطقس للمطار METAR والتنبؤ بالطقس بالمطارTAF).

المحطات المتاحة هي النقط الصفراء والحمراء على الخريطة.

حرك المؤشر فوق النقطة لمعرفة اسم المحطة.

ثم انقر لمعرفة أرصاد وتوقعات الطقس.

لتغيير الخارطة: اضغط على الأزرار الخضراء مع رمز الصليب الأسود للتكبير. على الزر الأخضر مع شرطة للتصغير، أو على الأسهم الخضراء للخرائط المجاورة.


METAR-TAF: